Dai7sineimaru — JD2631 — position and weather

sailwx.info

Track history (hours):
 
Tides and Currents Weather Stations Pressure Air Temp Water Temp Dewpoint Dewpoint Depression Visibility Wind Speed Wind Dir Waves Ship Positions

Dai7sineimaru

Last reported at 2017-Sep-15 10:07 UTC. Time now 2017-Sep-20 18:22 UTC.
Position N 34°54' E 139°48'.

Length 73 m; draft 4.9 m.

MMSI: 431000488.

Date/timePositionNaut miles runAvg speedWind from/ knotsBaromVisibWave heightAir tempDewpointWater temp
2017-Sep-15 10:07N 34°54' E 139°48'411.6
2017-Sep-15 09:45N 34°57' E 139°44'311.7
2017-Sep-15 09:30N 34°60' E 139°43'611.5
2017-Sep-15 09:00N 35°05' E 139°45'611.6
2017-Sep-15 08:30N 35°11' E 139°46'611.7
2017-Sep-15 08:00N 35°17' E 139°45'611.7
2017-Sep-15 07:30N 35°22' E 139°42'510.2
2017-Sep-15 07:01N 35°26' E 139°47'5 9.9
2017-Sep-15 06:28N 35°21' E 139°51'0 0.0
2017-Sep-15 06:01N 35°22' E 139°51'0 0.0
2017-Sep-15 05:30N 35°22' E 139°51'0 0.0
2017-Sep-15 04:22N 35°22' E 139°51'0 0.0
2017-Sep-15 03:59N 35°22' E 139°51'0 0.0
2017-Sep-15 03:23N 35°22' E 139°51'0 0.0
2017-Sep-15 02:56N 35°22' E 139°51'0 0.0
2017-Sep-15 02:29N 35°22' E 139°51'0 0.0
2017-Sep-15 01:39N 35°22' E 139°51'0 0.0
2017-Sep-15 01:21N 35°22' E 139°51'0 0.0
2017-Sep-15 00:54N 35°22' E 139°51'0 0.0
2017-Sep-15 00:30N 35°22' E 139°51'0 0.0
2017-Sep-15 00:00N 35°22' E 139°51'0 0.0
2017-Sep-14 23:28N 35°22' E 139°51'0 0.0
2017-Sep-14 22:58N 35°22' E 139°51'0 0.0
2017-Sep-14 22:31N 35°22' E 139°51'0 0.8
2017-Sep-14 22:00N 35°21' E 139°51'0 0.0
2017-Sep-14 10:36N 35°21' E 139°51'0 0.7
2017-Sep-14 10:30N 35°21' E 139°51'1 2.4
2017-Sep-14 10:01N 35°22' E 139°50'1 2.6
2017-Sep-14 09:31N 35°23' E 139°49'0 0.0
2017-Sep-14 09:01N 35°23' E 139°49'0 0.0
2017-Sep-14 08:31N 35°23' E 139°49'0 0.0
2017-Sep-14 08:00N 35°23' E 139°49'0 0.0
2017-Sep-14 07:31N 35°23' E 139°49'0 0.0
2017-Sep-14 07:00N 35°23' E 139°49'0 0.0
2017-Sep-14 06:30N 35°23' E 139°49'3 6.3
2017-Sep-14 06:01N 35°25' E 139°46'611.8
2017-Sep-14 05:31N 35°23' E 139°39'1 1.2
2017-Sep-14 05:00N 35°23' E 139°38'0 0.0
2017-Sep-14 04:30N 35°23' E 139°38'0 0.0
2017-Sep-14 04:01N 35°23' E 139°38'0 0.0
2017-Sep-14 03:31N 35°23' E 139°38'0 0.0
2017-Sep-14 03:01N 35°23' E 139°38'0 0.0
2017-Sep-14 02:30N 35°23' E 139°38'0 0.0
2017-Sep-14 02:00N 35°23' E 139°38'0 0.0
2017-Sep-14 01:31N 35°23' E 139°38'0 0.0
2017-Sep-14 01:01N 35°23' E 139°38'0 0.0
2017-Sep-14 00:31N 35°23' E 139°38'0 0.0
2017-Sep-14 00:00N 35°23' E 139°38'0 0.0
2017-Sep-13 23:31N 35°23' E 139°38'0 0.0
2017-Sep-13 23:00N 35°23' E 139°38'0 0.0
2017-Sep-13 22:31N 35°23' E 139°38'2 4.2
2017-Sep-13 22:00N 35°23' E 139°41'611.8
2017-Sep-13 21:31N 35°27' E 139°46'712.7
2017-Sep-13 20:59N 35°33' E 139°51'510.3
2017-Sep-13 20:30N 35°37' E 139°48'0 0.4
2017-Sep-13 19:56N 35°37' E 139°48'0 0.0
2017-Sep-13 19:29N 35°37' E 139°48'0 0.0
2017-Sep-13 18:48N 35°37' E 139°48'0 0.0
2017-Sep-13 18:30N 35°37' E 139°48'0 0.0
2017-Sep-13 17:56N 35°37' E 139°48'0 0.0
2017-Sep-13 17:30N 35°37' E 139°48'0 0.0
2017-Sep-13 17:00N 35°37' E 139°48'0 0.0
2017-Sep-13 16:30N 35°37' E 139°48'0 0.0
2017-Sep-13 15:59N 35°37' E 139°48'0 0.0
2017-Sep-13 15:30N 35°37' E 139°48'0 0.0
2017-Sep-13 14:59N 35°37' E 139°48'0 0.0
2017-Sep-13 14:30N 35°37' E 139°48'0 0.0
2017-Sep-13 13:58N 35°37' E 139°48'0 0.0
2017-Sep-13 13:21N 35°37' E 139°48'0 0.0
2017-Sep-13 12:58N 35°37' E 139°48'0 0.0
2017-Sep-13 12:31N 35°37' E 139°48'0 0.0
2017-Sep-13 12:00N 35°37' E 139°48'0 0.0
2017-Sep-13 11:30N 35°37' E 139°48'0 0.0
2017-Sep-13 11:01N 35°37' E 139°48'0 0.0
2017-Sep-13 10:30N 35°37' E 139°48'0 0.0
2017-Sep-13 10:01N 35°37' E 139°48'0 0.0
2017-Sep-13 09:30N 35°37' E 139°48'0 0.0
2017-Sep-13 08:59N 35°37' E 139°48'0 0.0
2017-Sep-13 08:30N 35°37' E 139°48'0 0.0
2017-Sep-13 08:00N 35°37' E 139°48'0 0.0
2017-Sep-13 07:31N 35°37' E 139°48'0 0.0
2017-Sep-13 06:55N 35°37' E 139°48'0 0.0
2017-Sep-13 06:30N 35°37' E 139°48'0 0.0
2017-Sep-13 06:00N 35°37' E 139°48'0 0.0
2017-Sep-13 05:29N 35°37' E 139°48'0 0.0
2017-Sep-13 05:00N 35°37' E 139°48'0 0.0
2017-Sep-13 04:30N 35°37' E 139°48'0 0.0
2017-Sep-13 04:00N 35°37' E 139°48'0 0.0
2017-Sep-13 03:30N 35°37' E 139°48'1 2.3
2017-Sep-13 03:01N 35°37' E 139°49'7 2.6
2017-Sep-13 00:14N 35°40' E 139°57'4 0.3
2017-Sep-12 07:27N 35°36' E 139°56'511.4
2017-Sep-12 07:00N 35°31' E 139°53'611.6
2017-Sep-12 06:30N 35°27' E 139°49'611.6
2017-Sep-12 06:00N 35°22' E 139°45'610.3
2017-Sep-12 05:27N 35°16' E 139°46'511.4
2017-Sep-12 05:00N 35°11' E 139°47'611.5
2017-Sep-12 04:30N 35°06' E 139°44'612.1
2017-Sep-12 03:59N 35°02' E 139°38'234 9.7
2017-Sep-11 03:51N 34°06' E 135°02'410.4
2017-Sep-11 03:30N 34°09' E 135°02'510.2
2017-Sep-11 03:00N 34°14' E 135°03'1310.2
2017-Sep-11 01:42N 34°26' E 135°11'611.6
2017-Sep-11 01:11N 34°30' E 135°16'511.1
2017-Sep-11 00:45N 34°33' E 135°20'410.8
2017-Sep-11 00:24N 34°36' E 135°23'4 1.4
2017-Sep-10 21:30N 34°34' E 135°27'0 0.0
2017-Sep-10 21:00N 34°34' E 135°27'0 0.0
2017-Sep-10 20:28N 34°34' E 135°27'0 0.0
2017-Sep-10 19:45N 34°34' E 135°27'0 0.0
2017-Sep-10 19:27N 34°34' E 135°27'0 0.0
2017-Sep-10 19:00N 34°34' E 135°27'0 0.0
2017-Sep-10 18:30N 34°34' E 135°27'0 0.0
2017-Sep-10 18:00N 34°34' E 135°27'0 0.0
2017-Sep-10 17:30N 34°34' E 135°27'0 0.0
2017-Sep-10 17:00N 34°34' E 135°27'0 0.0
2017-Sep-10 16:06N 34°34' E 135°27'0 0.0
2017-Sep-10 15:59N 34°34' E 135°27'0 0.0
2017-Sep-10 15:25N 34°34' E 135°27'0 0.0
2017-Sep-10 14:57N 34°34' E 135°27'0 0.0
2017-Sep-10 13:54N 34°34' E 135°27'0 0.0
2017-Sep-10 12:53N 34°34' E 135°27'0 0.0
2017-Sep-10 12:30N 34°34' E 135°27'0 0.0
2017-Sep-10 12:00N 34°34' E 135°27'0 0.0
2017-Sep-10 11:30N 34°34' E 135°27'0 0.0
2017-Sep-10 11:00N 34°34' E 135°27'0 0.0
2017-Sep-10 10:29N 34°34' E 135°27'0 0.0
2017-Sep-10 10:00N 34°34' E 135°27'0 0.0
2017-Sep-10 09:29N 34°34' E 135°27'0 0.0
2017-Sep-10 08:27N 34°34' E 135°27'0 0.0
2017-Sep-10 05:50N 34°34' E 135°27'0 0.7
2017-Sep-10 05:15N 34°34' E 135°27'0 0.5
2017-Sep-10 04:45N 34°35' E 135°27'0 0.0
2017-Sep-10 04:06N 34°35' E 135°27'0 0.1
2017-Sep-10 04:00N 34°35' E 135°27'0 0.0
2017-Sep-10 03:30N 34°35' E 135°27'0 0.0
2017-Sep-10 03:00N 34°35' E 135°27'0 0.0
2017-Sep-10 02:30N 34°35' E 135°27'0 0.0
2017-Sep-10 02:00N 34°35' E 135°27'0 0.0
2017-Sep-10 01:28N 34°35' E 135°27'0 0.0
2017-Sep-10 00:58N 34°35' E 135°27'0 0.1
2017-Sep-10 00:30N 34°35' E 135°27'0 0.1
2017-Sep-10 00:00N 34°35' E 135°27'1 1.4
2017-Sep-09 23:30N 34°35' E 135°26'5 9.7
2017-Sep-09 23:00N 34°34' E 135°21'713.0
2017-Sep-09 22:30N 34°29' E 135°15'612.5
2017-Sep-09 22:00N 34°25' E 135°10'612.8
2017-Sep-09 21:30N 34°20' E 135°05'813.1
2017-Sep-09 20:53N 34°12' E 135°03'513.1
2017-Sep-09 20:30N 34°07' E 135°03'  
2017-Sep-07 09:29N 34°48' E 139°11'  
Track history (hours):
 
Tides and Currents Weather Stations Pressure Air Temp Water Temp Dewpoint Dewpoint Depression Visibility Wind Speed Wind Dir Waves Ship Positions

Dai7sineimaru

Last reported at 2017-Sep-15 10:07 UTC. Time now 2017-Sep-20 18:22 UTC.
Position N 34°54' E 139°48'.

Length 73 m; draft 4.9 m.

MMSI: 431000488.

Date/timePositionNaut miles runAvg speedWind from/ knotsBaromVisibWave heightAir tempDewpointWater temp
2017-Sep-15 10:07N 34°54' E 139°48'411.6
2017-Sep-15 09:45N 34°57' E 139°44'311.7
2017-Sep-15 09:30N 34°60' E 139°43'611.5
2017-Sep-15 09:00N 35°05' E 139°45'611.6
2017-Sep-15 08:30N 35°11' E 139°46'611.7
2017-Sep-15 08:00N 35°17' E 139°45'611.7
2017-Sep-15 07:30N 35°22' E 139°42'510.2
2017-Sep-15 07:01N 35°26' E 139°47'5 9.9
2017-Sep-15 06:28N 35°21' E 139°51'0 0.0
2017-Sep-15 06:01N 35°22' E 139°51'0 0.0
2017-Sep-15 05:30N 35°22' E 139°51'0 0.0
2017-Sep-15 04:22N 35°22' E 139°51'0 0.0
2017-Sep-15 03:59N 35°22' E 139°51'0 0.0
2017-Sep-15 03:23N 35°22' E 139°51'0 0.0
2017-Sep-15 02:56N 35°22' E 139°51'0 0.0
2017-Sep-15 02:29N 35°22' E 139°51'0 0.0
2017-Sep-15 01:39N 35°22' E 139°51'0 0.0
2017-Sep-15 01:21N 35°22' E 139°51'0 0.0
2017-Sep-15 00:54N 35°22' E 139°51'0 0.0
2017-Sep-15 00:30N 35°22' E 139°51'0 0.0
2017-Sep-15 00:00N 35°22' E 139°51'0 0.0
2017-Sep-14 23:28N 35°22' E 139°51'0 0.0
2017-Sep-14 22:58N 35°22' E 139°51'0 0.0
2017-Sep-14 22:31N 35°22' E 139°51'0 0.8
2017-Sep-14 22:00N 35°21' E 139°51'0 0.0
2017-Sep-14 10:36N 35°21' E 139°51'0 0.7
2017-Sep-14 10:30N 35°21' E 139°51'1 2.4
2017-Sep-14 10:01N 35°22' E 139°50'1 2.6
2017-Sep-14 09:31N 35°23' E 139°49'0 0.0
2017-Sep-14 09:01N 35°23' E 139°49'0 0.0
2017-Sep-14 08:31N 35°23' E 139°49'0 0.0
2017-Sep-14 08:00N 35°23' E 139°49'0 0.0
2017-Sep-14 07:31N 35°23' E 139°49'0 0.0
2017-Sep-14 07:00N 35°23' E 139°49'0 0.0
2017-Sep-14 06:30N 35°23' E 139°49'3 6.3
2017-Sep-14 06:01N 35°25' E 139°46'611.8
2017-Sep-14 05:31N 35°23' E 139°39'1 1.2
2017-Sep-14 05:00N 35°23' E 139°38'0 0.0
2017-Sep-14 04:30N 35°23' E 139°38'0 0.0
2017-Sep-14 04:01N 35°23' E 139°38'0 0.0
2017-Sep-14 03:31N 35°23' E 139°38'0 0.0
2017-Sep-14 03:01N 35°23' E 139°38'0 0.0
2017-Sep-14 02:30N 35°23' E 139°38'0 0.0
2017-Sep-14 02:00N 35°23' E 139°38'0 0.0
2017-Sep-14 01:31N 35°23' E 139°38'0 0.0
2017-Sep-14 01:01N 35°23' E 139°38'0 0.0
2017-Sep-14 00:31N 35°23' E 139°38'0 0.0
2017-Sep-14 00:00N 35°23' E 139°38'0 0.0
2017-Sep-13 23:31N 35°23' E 139°38'0 0.0
2017-Sep-13 23:00N 35°23' E 139°38'0 0.0
2017-Sep-13 22:31N 35°23' E 139°38'2 4.2
2017-Sep-13 22:00N 35°23' E 139°41'611.8
2017-Sep-13 21:31N 35°27' E 139°46'712.7
2017-Sep-13 20:59N 35°33' E 139°51'510.3
2017-Sep-13 20:30N 35°37' E 139°48'0 0.4
2017-Sep-13 19:56N 35°37' E 139°48'0 0.0
2017-Sep-13 19:29N 35°37' E 139°48'0 0.0
2017-Sep-13 18:48N 35°37' E 139°48'0 0.0
2017-Sep-13 18:30N 35°37' E 139°48'0 0.0
2017-Sep-13 17:56N 35°37' E 139°48'0 0.0
2017-Sep-13 17:30N 35°37' E 139°48'0 0.0
2017-Sep-13 17:00N 35°37' E 139°48'0 0.0
2017-Sep-13 16:30N 35°37' E 139°48'0 0.0
2017-Sep-13 15:59N 35°37' E 139°48'0 0.0
2017-Sep-13 15:30N 35°37' E 139°48'0 0.0
2017-Sep-13 14:59N 35°37' E 139°48'0 0.0
2017-Sep-13 14:30N 35°37' E 139°48'0 0.0
2017-Sep-13 13:58N 35°37' E 139°48'0 0.0
2017-Sep-13 13:21N 35°37' E 139°48'0 0.0
2017-Sep-13 12:58N 35°37' E 139°48'0 0.0
2017-Sep-13 12:31N 35°37' E 139°48'0 0.0
2017-Sep-13 12:00N 35°37' E 139°48'0 0.0
2017-Sep-13 11:30N 35°37' E 139°48'0 0.0
2017-Sep-13 11:01N 35°37' E 139°48'0 0.0
2017-Sep-13 10:30N 35°37' E 139°48'0 0.0
2017-Sep-13 10:01N 35°37' E 139°48'0 0.0
2017-Sep-13 09:30N 35°37' E 139°48'0 0.0
2017-Sep-13 08:59N 35°37' E 139°48'0 0.0
2017-Sep-13 08:30N 35°37' E 139°48'0 0.0
2017-Sep-13 08:00N 35°37' E 139°48'0 0.0
2017-Sep-13 07:31N 35°37' E 139°48'0 0.0
2017-Sep-13 06:55N 35°37' E 139°48'0 0.0
2017-Sep-13 06:30N 35°37' E 139°48'0 0.0
2017-Sep-13 06:00N 35°37' E 139°48'0 0.0
2017-Sep-13 05:29N 35°37' E 139°48'0 0.0
2017-Sep-13 05:00N 35°37' E 139°48'0 0.0
2017-Sep-13 04:30N 35°37' E 139°48'0 0.0
2017-Sep-13 04:00N 35°37' E 139°48'0 0.0
2017-Sep-13 03:30N 35°37' E 139°48'1 2.3
2017-Sep-13 03:01N 35°37' E 139°49'7 2.6
2017-Sep-13 00:14N 35°40' E 139°57'4 0.3
2017-Sep-12 07:27N 35°36' E 139°56'511.4
2017-Sep-12 07:00N 35°31' E 139°53'611.6
2017-Sep-12 06:30N 35°27' E 139°49'611.6
2017-Sep-12 06:00N 35°22' E 139°45'610.3
2017-Sep-12 05:27N 35°16' E 139°46'511.4
2017-Sep-12 05:00N 35°11' E 139°47'611.5
2017-Sep-12 04:30N 35°06' E 139°44'612.1
2017-Sep-12 03:59N 35°02' E 139°38'234 9.7
2017-Sep-11 03:51N 34°06' E 135°02'410.4
2017-Sep-11 03:30N 34°09' E 135°02'510.2
2017-Sep-11 03:00N 34°14' E 135°03'1310.2
2017-Sep-11 01:42N 34°26' E 135°11'611.6
2017-Sep-11 01:11N 34°30' E 135°16'511.1
2017-Sep-11 00:45N 34°33' E 135°20'410.8
2017-Sep-11 00:24N 34°36' E 135°23'4 1.4
2017-Sep-10 21:30N 34°34' E 135°27'0 0.0
2017-Sep-10 21:00N 34°34' E 135°27'0 0.0
2017-Sep-10 20:28N 34°34' E 135°27'0 0.0
2017-Sep-10 19:45N 34°34' E 135°27'0 0.0
2017-Sep-10 19:27N 34°34' E 135°27'0 0.0
2017-Sep-10 19:00N 34°34' E 135°27'0 0.0
2017-Sep-10 18:30N 34°34' E 135°27'0 0.0
2017-Sep-10 18:00N 34°34' E 135°27'0 0.0
2017-Sep-10 17:30N 34°34' E 135°27'0 0.0
2017-Sep-10 17:00N 34°34' E 135°27'0 0.0
2017-Sep-10 16:06N 34°34' E 135°27'0 0.0
2017-Sep-10 15:59N 34°34' E 135°27'0 0.0
2017-Sep-10 15:25N 34°34' E 135°27'0 0.0
2017-Sep-10 14:57N 34°34' E 135°27'0 0.0
2017-Sep-10 13:54N 34°34' E 135°27'0 0.0
2017-Sep-10 12:53N 34°34' E 135°27'0 0.0
2017-Sep-10 12:30N 34°34' E 135°27'0 0.0
2017-Sep-10 12:00N 34°34' E 135°27'0 0.0
2017-Sep-10 11:30N 34°34' E 135°27'0 0.0
2017-Sep-10 11:00N 34°34' E 135°27'0 0.0
2017-Sep-10 10:29N 34°34' E 135°27'0 0.0
2017-Sep-10 10:00N 34°34' E 135°27'0 0.0
2017-Sep-10 09:29N 34°34' E 135°27'0 0.0
2017-Sep-10 08:27N 34°34' E 135°27'0 0.0
2017-Sep-10 05:50N 34°34' E 135°27'0 0.7
2017-Sep-10 05:15N 34°34' E 135°27'0 0.5
2017-Sep-10 04:45N 34°35' E 135°27'0 0.0
2017-Sep-10 04:06N 34°35' E 135°27'0 0.1
2017-Sep-10 04:00N 34°35' E 135°27'0 0.0
2017-Sep-10 03:30N 34°35' E 135°27'0 0.0
2017-Sep-10 03:00N 34°35' E 135°27'0 0.0
2017-Sep-10 02:30N 34°35' E 135°27'0 0.0
2017-Sep-10 02:00N 34°35' E 135°27'0 0.0
2017-Sep-10 01:28N 34°35' E 135°27'0 0.0
2017-Sep-10 00:58N 34°35' E 135°27'0 0.1
2017-Sep-10 00:30N 34°35' E 135°27'0 0.1
2017-Sep-10 00:00N 34°35' E 135°27'1 1.4
2017-Sep-09 23:30N 34°35' E 135°26'5 9.7
2017-Sep-09 23:00N 34°34' E 135°21'713.0
2017-Sep-09 22:30N 34°29' E 135°15'612.5
2017-Sep-09 22:00N 34°25' E 135°10'612.8
2017-Sep-09 21:30N 34°20' E 135°05'813.1
2017-Sep-09 20:53N 34°12' E 135°03'513.1
2017-Sep-09 20:30N 34°07' E 135°03'  
2017-Sep-07 09:29N 34°48' E 139°11'  

Dump ship's entire track history